createdAt,value
2023-04-18T00:00:27.090Z,69.65
2023-04-18T00:02:29.634Z,69.64
2023-04-18T00:04:34.161Z,69.53
2023-04-18T00:06:38.534Z,69.73
2023-04-18T00:08:40.389Z,69.50
2023-04-18T00:10:42.019Z,69.67
2023-04-18T00:12:43.567Z,70.07
2023-04-18T00:14:44.993Z,70.02
2023-04-18T00:16:46.914Z,69.65
2023-04-18T00:18:48.463Z,69.62
2023-04-18T00:20:50.009Z,69.96
2023-04-18T00:22:54.384Z,70.13
2023-04-18T00:24:55.933Z,70.28
2023-04-18T00:26:57.421Z,69.89
2023-04-18T00:28:58.960Z,70.15
2023-04-18T00:31:00.665Z,69.60
2023-04-18T00:33:02.300Z,69.60
2023-04-18T00:35:04.176Z,69.70
2023-04-18T00:37:05.707Z,70.07
2023-04-18T00:39:07.207Z,70.41
2023-04-18T00:41:08.665Z,70.37
2023-04-18T00:43:10.177Z,70.62
2023-04-18T00:45:11.744Z,70.44
2023-04-18T00:47:13.313Z,70.42
2023-04-18T00:49:14.789Z,70.50
2023-04-18T00:51:16.393Z,70.75
2023-04-18T00:53:17.849Z,71.00
2023-04-18T00:55:19.416Z,70.77
2023-04-18T00:57:22.278Z,70.87
2023-04-18T00:59:23.705Z,71.12
2023-04-18T01:01:25.504Z,70.79
2023-04-18T01:03:27.115Z,70.80
2023-04-18T01:05:28.784Z,70.79
2023-04-18T01:07:30.817Z,71.50
2023-04-18T01:09:32.328Z,71.51
2023-04-18T01:11:33.858Z,72.01
2023-04-18T01:13:35.360Z,71.85
2023-04-18T01:15:37.241Z,72.26
2023-04-18T01:17:39.805Z,72.53
2023-04-18T01:19:41.527Z,72.54
2023-04-18T01:21:44.022Z,72.43
2023-04-18T01:23:45.686Z,72.42
2023-04-18T01:25:47.417Z,72.46
2023-04-18T01:27:48.909Z,72.57
2023-04-18T01:29:50.587Z,72.63
2023-04-18T01:31:52.109Z,72.73
2023-04-18T01:33:53.593Z,72.80
2023-04-18T01:35:55.019Z,72.81
2023-04-18T01:37:57.276Z,72.33
2023-04-18T01:40:00.009Z,72.98
2023-04-18T01:42:02.186Z,72.82
2023-04-18T01:44:03.852Z,73.55
2023-04-18T01:46:05.590Z,73.29
2023-04-18T01:48:07.182Z,73.28
2023-04-18T01:50:08.944Z,73.48
2023-04-18T01:52:10.407Z,73.65
2023-04-18T01:54:12.226Z,73.61
2023-04-18T01:56:14.042Z,73.52
2023-04-18T01:58:16.320Z,73.29
2023-04-18T02:00:18.022Z,73.46
2023-04-18T02:02:19.661Z,73.94
2023-04-18T02:04:21.399Z,73.78
2023-04-18T02:06:23.051Z,73.32
2023-04-18T02:08:24.501Z,73.55
2023-04-18T02:10:26.068Z,74.12
2023-04-18T02:12:27.553Z,73.80
2023-04-18T02:14:31.405Z,73.60
2023-04-18T02:16:33.067Z,73.74
2023-04-18T02:18:34.677Z,74.10
2023-04-18T02:20:36.416Z,74.34
2023-04-18T02:22:38.395Z,74.61
2023-04-18T02:24:39.888Z,74.24
2023-04-18T02:26:41.400Z,74.01
2023-04-18T02:28:43.035Z,74.11
2023-04-18T02:30:44.601Z,74.21
2023-04-18T02:32:46.207Z,74.34
2023-04-18T02:34:47.726Z,74.13
2023-04-18T02:36:49.246Z,74.30
2023-04-18T02:38:50.820Z,74.52
2023-04-18T02:40:52.353Z,74.10
2023-04-18T02:42:53.845Z,74.43
2023-04-18T02:44:55.338Z,74.37
2023-04-18T02:46:56.912Z,74.71
2023-04-18T02:48:58.368Z,74.98
2023-04-18T02:51:06.405Z,74.66
2023-04-18T02:53:07.930Z,74.79
2023-04-18T02:55:09.531Z,74.69
2023-04-18T02:57:11.057Z,74.75
2023-04-18T02:59:12.668Z,74.40
2023-04-18T03:01:14.234Z,74.62
2023-04-18T03:03:15.723Z,74.61
2023-04-18T03:05:17.316Z,74.91
2023-04-18T03:07:18.806Z,75.71
2023-04-18T03:09:20.287Z,76.51
2023-04-18T03:11:22.454Z,77.04
2023-04-18T03:13:23.955Z,76.90
2023-04-18T03:15:25.549Z,77.39
2023-04-18T03:17:27.249Z,77.41
2023-04-18T03:19:28.765Z,77.74
2023-04-18T03:21:30.217Z,77.34
2023-04-18T03:23:31.766Z,77.79
2023-04-18T03:25:34.329Z,77.69
2023-04-18T03:27:35.907Z,77.35
2023-04-18T03:29:37.460Z,76.81
2023-04-18T03:31:39.276Z,76.81
2023-04-18T03:33:42.469Z,76.30
2023-04-18T03:35:44.011Z,76.49
2023-04-18T03:37:45.566Z,76.24
2023-04-18T03:39:47.066Z,76.06
2023-04-18T03:41:49.491Z,76.22
2023-04-18T03:43:51.063Z,75.77
2023-04-18T03:45:52.656Z,76.08
2023-04-18T03:47:54.292Z,75.90
2023-04-18T03:49:55.795Z,76.11
2023-04-18T03:51:57.245Z,77.26
2023-04-18T03:53:58.773Z,77.48
2023-04-18T03:56:00.271Z,77.90
2023-04-18T03:58:01.747Z,78.26
2023-04-18T04:00:05.228Z,78.34
2023-04-18T04:02:06.798Z,77.99
2023-04-18T04:04:09.422Z,77.41
2023-04-18T04:06:11.154Z,77.22
2023-04-18T04:08:13.095Z,77.20
2023-04-18T04:10:14.610Z,77.17
2023-04-18T04:12:16.419Z,77.21
2023-04-18T04:14:17.945Z,76.97
2023-04-18T04:16:19.478Z,76.57
2023-04-18T04:18:21.213Z,76.36
2023-04-18T04:20:26.580Z,76.55
2023-04-18T04:22:28.084Z,76.37
2023-04-18T04:24:29.586Z,76.29
2023-04-18T04:26:31.773Z,76.29
2023-04-18T04:28:33.600Z,75.97
2023-04-18T04:30:35.941Z,76.13
2023-04-18T04:32:38.988Z,76.36
2023-04-18T04:34:41.526Z,76.39
2023-04-18T04:36:43.904Z,76.05
2023-04-18T04:38:45.717Z,75.92
2023-04-18T04:40:47.222Z,75.82
2023-04-18T04:42:49.210Z,75.66
2023-04-18T04:44:50.865Z,75.99
2023-04-18T04:46:52.688Z,75.64
2023-04-18T04:48:54.489Z,75.67
2023-04-18T04:50:56.985Z,75.61
2023-04-18T04:52:58.465Z,75.02
2023-04-18T04:54:59.982Z,75.16
2023-04-18T04:57:02.286Z,77.45
2023-04-18T04:59:03.752Z,77.96
2023-04-18T05:01:07.673Z,78.60
2023-04-18T05:03:09.921Z,78.46
2023-04-18T05:05:11.636Z,79.12
2023-04-18T05:07:13.065Z,79.22
2023-04-18T05:09:14.689Z,79.22
2023-04-18T05:11:16.527Z,79.36
2023-04-18T05:13:18.126Z,79.28
2023-04-18T05:15:19.981Z,79.39
2023-04-18T05:17:21.504Z,79.32
2023-04-18T05:19:23.383Z,78.53
2023-04-18T05:21:26.173Z,78.39
2023-04-18T05:23:27.751Z,77.87
2023-04-18T05:25:29.944Z,77.86
2023-04-18T05:27:31.568Z,78.49
2023-04-18T05:29:33.112Z,79.53
2023-04-18T05:31:34.735Z,79.67
2023-04-18T05:33:36.296Z,80.27
2023-04-18T05:35:37.787Z,80.59
2023-04-18T05:37:39.376Z,79.08
2023-04-18T05:39:41.692Z,78.93
2023-04-18T05:41:43.253Z,77.98
2023-04-18T05:43:48.447Z,78.42
2023-04-18T05:45:59.597Z,77.67
2023-04-18T05:48:01.270Z,77.72
2023-04-18T05:50:03.045Z,77.82
2023-04-18T05:52:04.715Z,77.65
2023-04-18T05:54:06.246Z,77.18
2023-04-18T05:56:07.769Z,78.26
2023-04-18T05:58:09.282Z,78.60
2023-04-18T06:00:13.806Z,77.43
2023-04-18T06:02:15.318Z,77.65
2023-04-18T06:04:17.285Z,76.46
2023-04-18T06:06:19.150Z,75.82
2023-04-18T06:08:20.617Z,76.52
2023-04-18T06:10:22.128Z,77.04
2023-04-18T06:12:24.029Z,76.98
2023-04-18T06:14:26.111Z,76.46
2023-04-18T06:16:27.745Z,75.41
2023-04-18T06:18:29.298Z,75.61
2023-04-18T06:20:30.799Z,76.13
2023-04-18T06:22:34.092Z,75.85
2023-04-18T06:24:35.684Z,75.19
2023-04-18T06:26:37.152Z,74.28
2023-04-18T06:28:38.667Z,73.54
2023-04-18T06:30:40.194Z,72.85
2023-04-18T06:32:41.846Z,72.83
2023-04-18T06:34:44.863Z,72.46
2023-04-18T06:36:46.375Z,71.91
2023-04-18T06:38:47.835Z,71.24
2023-04-18T06:40:49.375Z,71.26
2023-04-18T06:42:51.016Z,70.54
2023-04-18T06:44:52.616Z,70.15
2023-04-18T06:46:54.123Z,69.62
2023-04-18T06:48:55.730Z,68.73
2023-04-18T06:50:57.216Z,69.26
2023-04-18T06:52:58.776Z,68.21
2023-04-18T06:55:00.255Z,68.25
2023-04-18T06:57:03.600Z,68.33
2023-04-18T06:59:05.198Z,67.80
2023-04-18T07:01:06.706Z,67.88
2023-04-18T07:03:13.031Z,67.45
2023-04-18T07:05:15.064Z,67.55
2023-04-18T07:07:16.542Z,67.46
2023-04-18T07:09:18.055Z,68.15
2023-04-18T07:11:19.596Z,67.74
2023-04-18T07:13:21.039Z,67.79
2023-04-18T07:15:22.618Z,68.01
2023-04-18T07:17:24.075Z,67.51
2023-04-18T07:19:25.698Z,67.78
2023-04-18T07:21:27.455Z,66.91
2023-04-18T07:23:28.898Z,66.91
2023-04-18T07:25:30.489Z,65.71
2023-04-18T07:27:31.982Z,65.98
2023-04-18T07:29:33.553Z,65.99
2023-04-18T07:31:35.236Z,65.51
2023-04-18T07:33:37.443Z,66.43
2023-04-18T07:35:40.483Z,66.49
2023-04-18T07:37:42.006Z,66.27
2023-04-18T07:39:43.537Z,66.36
2023-04-18T07:41:45.025Z,65.46
2023-04-18T07:43:46.501Z,64.97
2023-04-18T07:45:48.106Z,64.71
2023-04-18T07:47:49.777Z,65.09
2023-04-18T07:49:51.311Z,65.64
2023-04-18T07:51:52.812Z,65.02
2023-04-18T07:53:54.330Z,64.35
2023-04-18T07:55:55.787Z,64.18
2023-04-18T07:57:57.333Z,63.16
2023-04-18T07:59:58.864Z,63.07
2023-04-18T08:02:00.455Z,62.59
2023-04-18T08:04:02.323Z,62.25
2023-04-18T08:06:05.747Z,61.82
2023-04-18T08:08:07.842Z,60.71
2023-04-18T08:10:09.353Z,61.96
2023-04-18T08:12:10.886Z,61.91
2023-04-18T08:14:12.411Z,60.40
2023-04-18T08:16:16.364Z,60.31
2023-04-18T08:18:19.957Z,58.60
2023-04-18T08:20:21.544Z,60.07
2023-04-18T08:22:23.034Z,60.71
2023-04-18T08:24:24.586Z,60.02
2023-04-18T08:26:26.115Z,60.13
2023-04-18T08:28:27.655Z,59.08
2023-04-18T08:30:29.224Z,58.63
2023-04-18T08:32:31.622Z,58.08
2023-04-18T08:34:33.737Z,57.63
2023-04-18T08:36:35.590Z,57.00
2023-04-18T08:38:37.068Z,58.25
2023-04-18T08:40:38.758Z,58.25
2023-04-18T08:42:40.697Z,56.10
2023-04-18T08:44:42.445Z,55.90
2023-04-18T08:46:44.171Z,54.33
2023-04-18T08:48:46.846Z,55.18
2023-04-18T08:50:48.301Z,55.02
2023-04-18T08:52:49.784Z,53.89
2023-04-18T08:54:52.071Z,54.27
2023-04-18T08:57:06.133Z,50.96
2023-04-18T08:59:07.995Z,52.53
2023-04-18T09:01:10.348Z,53.12
2023-04-18T09:03:15.635Z,53.61
2023-04-18T09:05:19.676Z,52.85
2023-04-18T09:07:28.424Z,52.11
2023-04-18T09:09:42.014Z,52.23
2023-04-18T09:11:43.437Z,52.06
2023-04-18T09:13:47.286Z,52.27
2023-04-18T09:15:54.551Z,51.53
2023-04-18T09:17:58.046Z,51.20
2023-04-18T09:20:00.046Z,49.44
2023-04-18T09:22:02.256Z,49.72
2023-04-18T09:24:17.667Z,49.65
2023-04-18T09:26:33.248Z,48.82
2023-04-18T09:28:34.756Z,48.98
2023-04-18T09:30:40.189Z,49.42
2023-04-18T09:32:41.912Z,48.97
2023-04-18T09:34:43.397Z,49.85
2023-04-18T09:36:44.870Z,49.98
2023-04-18T09:38:46.759Z,52.79
2023-04-18T09:40:50.509Z,55.03
2023-04-18T09:42:54.310Z,56.36
2023-04-18T09:45:08.397Z,57.14
2023-04-18T09:47:09.964Z,57.66
2023-04-18T09:49:11.534Z,59.11
2023-04-18T09:51:16.604Z,58.96
2023-04-18T09:53:20.649Z,58.46
2023-04-18T09:55:22.550Z,57.63
2023-04-18T09:57:26.767Z,58.27
2023-04-18T09:59:42.377Z,59.47
2023-04-18T10:01:45.988Z,59.55
2023-04-18T10:03:47.789Z,59.22
2023-04-18T10:05:49.372Z,59.39
2023-04-18T10:07:51.116Z,59.77
2023-04-18T10:09:52.627Z,59.47
2023-04-18T10:11:54.090Z,59.86
2023-04-18T10:13:57.037Z,58.89
2023-04-18T10:15:58.630Z,58.40
2023-04-18T10:18:05.035Z,57.44
2023-04-18T10:20:08.486Z,57.38
2023-04-18T10:22:10.076Z,57.94
2023-04-18T10:24:31.450Z,59.12
2023-04-18T10:26:46.927Z,59.53
2023-04-18T10:28:53.513Z,57.80
2023-04-18T10:30:56.548Z,57.57
2023-04-18T10:32:58.180Z,57.62
2023-04-18T10:35:00.031Z,57.23
2023-04-18T10:37:04.964Z,57.57
2023-04-18T10:39:25.674Z,57.73
2023-04-18T10:41:28.041Z,57.06
2023-04-18T10:43:29.537Z,58.22
2023-04-18T10:45:32.622Z,57.89
2023-04-18T10:47:34.281Z,58.93
2023-04-18T10:49:38.974Z,58.64
2023-04-18T10:51:40.790Z,58.25
2023-04-18T10:54:02.481Z,57.80
2023-04-18T10:56:04.196Z,56.48
2023-04-18T10:58:05.983Z,55.45
2023-04-18T11:00:11.542Z,54.80
2023-04-18T11:02:30.155Z,54.93
2023-04-18T11:04:32.152Z,56.32
2023-04-18T11:06:33.657Z,57.48
2023-04-18T11:08:35.280Z,57.39
2023-04-18T11:10:38.644Z,56.50
2023-04-18T11:12:40.670Z,56.98
2023-04-18T11:14:46.451Z,57.36
2023-04-18T11:16:48.045Z,57.29
2023-04-18T11:18:49.543Z,57.01
2023-04-18T11:20:51.315Z,57.26
2023-04-18T11:22:53.869Z,56.98
2023-04-18T11:24:59.151Z,57.16
2023-04-18T11:27:01.884Z,56.64
2023-04-18T11:29:04.669Z,56.18
2023-04-18T11:31:06.186Z,56.61
2023-04-18T11:33:08.471Z,57.90
2023-04-18T11:35:11.012Z,57.74
2023-04-18T11:37:15.121Z,57.40
2023-04-18T11:39:16.830Z,57.17
2023-04-18T11:41:18.327Z,57.48
2023-04-18T11:43:20.966Z,57.43
2023-04-18T11:45:22.469Z,56.66
2023-04-18T11:47:24.062Z,56.39
2023-04-18T11:49:29.086Z,56.40
2023-04-18T11:51:31.269Z,55.82
2023-04-18T11:53:36.276Z,56.24
2023-04-18T11:55:37.787Z,56.08
2023-04-18T11:57:39.609Z,55.69
2023-04-18T11:59:44.427Z,55.45
2023-04-18T12:01:45.952Z,56.97
2023-04-18T12:04:00.841Z,58.44
2023-04-18T12:06:02.795Z,60.01
2023-04-18T12:08:07.251Z,61.01
2023-04-18T12:10:09.726Z,62.82
2023-04-18T12:12:11.428Z,63.43
2023-04-18T12:14:22.307Z,63.85
2023-04-18T12:16:28.313Z,65.89
2023-04-18T12:18:30.046Z,67.37
2023-04-18T12:20:38.959Z,69.25
2023-04-18T12:22:41.987Z,69.14
2023-04-18T12:24:43.707Z,69.94
2023-04-18T12:26:45.927Z,70.16
2023-04-18T12:28:49.626Z,69.73
2023-04-18T12:30:51.169Z,69.93
2023-04-18T12:32:55.251Z,69.15
2023-04-18T12:34:56.856Z,69.15
2023-04-18T12:36:58.378Z,68.58
2023-04-18T12:38:59.882Z,67.27
2023-04-18T12:41:01.358Z,66.73
2023-04-18T12:43:03.696Z,65.81
2023-04-18T12:45:07.784Z,64.77
2023-04-18T12:47:09.312Z,66.59
2023-04-18T12:49:10.902Z,66.76
2023-04-18T12:51:12.436Z,66.79
2023-04-18T12:53:13.946Z,66.97
2023-04-18T12:55:15.824Z,66.17
2023-04-18T12:57:17.505Z,65.31
2023-04-18T12:59:18.943Z,64.83
2023-04-18T13:01:20.957Z,64.66
2023-04-18T13:03:22.751Z,65.21
2023-04-18T13:05:25.220Z,65.46
2023-04-18T13:07:26.752Z,65.88
2023-04-18T13:09:28.323Z,66.12
2023-04-18T13:11:30.054Z,66.65
2023-04-18T13:13:32.217Z,66.15
2023-04-18T13:15:34.463Z,65.85
2023-04-18T13:17:36.912Z,65.88
2023-04-18T13:19:38.517Z,67.72
2023-04-18T13:21:39.943Z,68.13
2023-04-18T13:23:41.367Z,68.74
2023-04-18T13:25:42.853Z,68.34
2023-04-18T13:27:45.876Z,69.09
2023-04-18T13:29:47.395Z,68.87
2023-04-18T13:31:49.080Z,67.68
2023-04-18T13:33:50.691Z,68.42
2023-04-18T13:35:52.225Z,69.15
2023-04-18T13:37:53.728Z,68.39
2023-04-18T13:39:55.262Z,68.44
2023-04-18T13:41:56.738Z,67.54
2023-04-18T13:43:58.329Z,66.00
2023-04-18T13:45:59.872Z,67.20
2023-04-18T13:48:01.357Z,66.80
2023-04-18T13:50:02.872Z,66.36
2023-04-18T13:52:04.536Z,66.23
2023-04-18T13:54:06.013Z,65.92
2023-04-18T13:56:07.642Z,66.08
2023-04-18T13:58:09.919Z,65.99
2023-04-18T14:00:13.950Z,65.66
2023-04-18T14:02:15.949Z,65.88
2023-04-18T14:04:17.655Z,65.68
2023-04-18T14:06:19.293Z,66.26
2023-04-18T14:08:21.026Z,65.29
2023-04-18T14:10:22.844Z,64.91
2023-04-18T14:12:24.567Z,64.61
2023-04-18T14:14:26.114Z,66.12
2023-04-18T14:16:31.763Z,64.60
2023-04-18T14:18:33.973Z,64.42
2023-04-18T14:20:36.284Z,63.63
2023-04-18T14:22:37.770Z,65.10
2023-04-18T14:24:39.262Z,65.87
2023-04-18T14:26:40.761Z,66.39
2023-04-18T14:28:42.308Z,66.73
2023-04-18T14:30:43.801Z,66.64
2023-04-18T14:32:45.860Z,67.15
2023-04-18T14:34:47.428Z,68.10
2023-04-18T14:36:48.902Z,68.29
2023-04-18T14:38:50.352Z,68.34
2023-04-18T14:40:51.810Z,67.42
2023-04-18T14:42:53.265Z,67.50
2023-04-18T14:44:54.806Z,67.74
2023-04-18T14:46:56.457Z,67.66
2023-04-18T14:48:58.163Z,68.21
2023-04-18T14:51:00.007Z,67.79
2023-04-18T14:53:01.692Z,67.75
2023-04-18T14:55:03.355Z,67.38
2023-04-18T14:57:04.910Z,67.54
2023-04-18T14:59:06.426Z,67.24
2023-04-18T15:01:07.909Z,67.93
2023-04-18T15:03:11.220Z,68.02
2023-04-18T15:05:13.274Z,67.25
2023-04-18T15:07:15.409Z,66.69
2023-04-18T15:09:16.949Z,66.03
2023-04-18T15:11:18.426Z,65.74
2023-04-18T15:13:20.180Z,65.42
2023-04-18T15:15:22.693Z,65.60
2023-04-18T15:17:24.218Z,65.99
2023-04-18T15:19:25.726Z,66.73
2023-04-18T15:21:27.306Z,66.82
2023-04-18T15:23:28.720Z,67.10
2023-04-18T15:25:31.030Z,67.06
2023-04-18T15:27:32.503Z,67.26
2023-04-18T15:29:34.138Z,67.27
2023-04-18T15:31:36.707Z,66.77
2023-04-18T15:33:39.977Z,66.96
2023-04-18T15:35:41.469Z,66.20
2023-04-18T15:37:42.961Z,67.08
2023-04-18T15:39:44.509Z,67.06
2023-04-18T15:41:47.368Z,66.71
2023-04-18T15:43:48.874Z,65.94
2023-04-18T15:45:51.178Z,65.60
2023-04-18T15:47:52.797Z,65.08
2023-04-18T15:49:54.368Z,65.62
2023-04-18T15:51:56.921Z,65.78
2023-04-18T15:53:58.845Z,65.59
2023-04-18T15:56:01.863Z,65.65
2023-04-18T15:58:03.463Z,65.42
2023-04-18T16:00:12.048Z,65.17
2023-04-18T16:02:13.545Z,65.01
2023-04-18T16:04:15.615Z,65.20
2023-04-18T16:06:18.877Z,65.71
2023-04-18T16:08:20.399Z,66.41
2023-04-18T16:10:22.039Z,66.11
2023-04-18T16:12:23.522Z,65.40
2023-04-18T16:14:25.047Z,64.84
2023-04-18T16:16:28.526Z,64.26
2023-04-18T16:18:30.218Z,64.82
2023-04-18T16:20:33.491Z,65.11
2023-04-18T16:22:35.107Z,65.84
2023-04-18T16:24:36.547Z,66.53
2023-04-18T16:26:38.003Z,65.91
2023-04-18T16:28:39.513Z,65.86
2023-04-18T16:30:43.861Z,66.09
2023-04-18T16:32:45.565Z,66.46
2023-04-18T16:34:47.299Z,66.38
2023-04-18T16:36:50.960Z,66.72
2023-04-18T16:38:52.835Z,66.85
2023-04-18T16:40:56.306Z,66.32
2023-04-18T16:42:58.029Z,66.23
2023-04-18T16:45:01.791Z,65.67
2023-04-18T16:47:05.090Z,65.49
2023-04-18T16:49:06.701Z,65.15
2023-04-18T16:51:08.164Z,64.88
2023-04-18T16:53:09.618Z,64.27
2023-04-18T16:55:11.329Z,64.06
2023-04-18T16:57:12.778Z,64.69
2023-04-18T16:59:14.310Z,65.14
2023-04-18T17:01:15.814Z,65.67
2023-04-18T17:03:17.395Z,65.72
2023-04-18T17:05:19.473Z,66.06
2023-04-18T17:07:20.995Z,66.37
2023-04-18T17:09:22.751Z,66.82
2023-04-18T17:11:24.217Z,66.88
2023-04-18T17:13:27.258Z,66.58
2023-04-18T17:15:28.772Z,66.73
2023-04-18T17:17:30.283Z,66.83
2023-04-18T17:19:31.858Z,66.81
2023-04-18T17:21:36.705Z,66.96
2023-04-18T17:23:42.687Z,66.11
2023-04-18T17:25:44.252Z,65.69
2023-04-18T17:27:45.737Z,65.31
2023-04-18T17:29:47.193Z,65.21
2023-04-18T17:31:48.690Z,64.82
2023-04-18T17:33:52.962Z,64.69
2023-04-18T17:35:54.482Z,64.08
2023-04-18T17:37:55.917Z,63.99
2023-04-18T17:39:58.839Z,63.94
2023-04-18T17:42:01.130Z,64.00
2023-04-18T17:44:02.640Z,64.47
2023-04-18T17:46:04.250Z,64.61
2023-04-18T17:48:06.086Z,64.74
2023-04-18T17:50:08.163Z,64.92
2023-04-18T17:52:09.588Z,64.72
2023-04-18T17:54:13.168Z,64.38
2023-04-18T17:56:14.658Z,64.34
2023-04-18T17:58:16.937Z,64.44
2023-04-18T18:00:18.498Z,64.84
2023-04-18T18:02:20.499Z,63.92
2023-04-18T18:04:24.811Z,63.87
2023-04-18T18:06:27.899Z,63.40
2023-04-18T18:08:29.673Z,63.58
2023-04-18T18:10:31.153Z,63.72
2023-04-18T18:12:35.156Z,63.71
2023-04-18T18:14:36.754Z,63.80
2023-04-18T18:16:39.144Z,63.99
2023-04-18T18:18:40.727Z,64.33
2023-04-18T18:20:43.285Z,65.41
2023-04-18T18:22:44.778Z,65.68
2023-04-18T18:24:46.217Z,65.15
2023-04-18T18:26:48.570Z,64.80
2023-04-18T18:28:51.743Z,64.03
2023-04-18T18:30:53.852Z,63.82
2023-04-18T18:32:56.512Z,63.68
2023-04-18T18:34:58.000Z,63.57
2023-04-18T18:36:59.602Z,63.56
2023-04-18T18:39:01.092Z,63.43
2023-04-18T18:41:03.746Z,63.49
2023-04-18T18:43:05.630Z,63.94
2023-04-18T18:45:07.639Z,63.71
2023-04-18T18:47:09.095Z,63.48
2023-04-18T18:49:10.608Z,63.45
2023-04-18T18:51:12.081Z,63.43
2023-04-18T18:53:16.893Z,63.60
2023-04-18T18:55:18.503Z,63.91
2023-04-18T18:57:19.934Z,64.52
2023-04-18T18:59:21.356Z,64.43
2023-04-18T19:01:23.197Z,64.67
2023-04-18T19:03:25.304Z,64.70
2023-04-18T19:05:26.881Z,64.38
2023-04-18T19:07:29.959Z,64.04
2023-04-18T19:09:31.747Z,64.32
2023-04-18T19:11:33.208Z,64.34
2023-04-18T19:13:34.721Z,64.21
2023-04-18T19:15:36.352Z,64.48
2023-04-18T19:17:37.945Z,64.14
2023-04-18T19:19:39.651Z,64.50
2023-04-18T19:21:45.810Z,64.27
2023-04-18T19:23:47.389Z,64.50
2023-04-18T19:25:48.917Z,64.15
2023-04-18T19:27:50.562Z,64.02
2023-04-18T19:29:52.044Z,63.74
2023-04-18T19:31:53.661Z,63.77
2023-04-18T19:33:55.430Z,64.16
2023-04-18T19:35:56.974Z,64.72
2023-04-18T19:38:01.734Z,64.92
2023-04-18T19:40:03.331Z,64.89
2023-04-18T19:42:05.152Z,65.03
2023-04-18T19:44:06.639Z,65.10
2023-04-18T19:46:08.410Z,65.06
2023-04-18T19:48:09.913Z,64.99
2023-04-18T19:50:11.535Z,64.66
2023-04-18T19:52:13.063Z,64.63
2023-04-18T19:54:14.753Z,64.66
2023-04-18T19:56:16.731Z,64.85
2023-04-18T19:58:39.615Z,64.36
2023-04-18T20:00:41.616Z,64.27
2023-04-18T20:02:43.186Z,63.99
2023-04-18T20:04:45.192Z,63.92
2023-04-18T20:06:46.774Z,64.27
2023-04-18T20:08:48.402Z,64.04
2023-04-18T20:10:49.875Z,64.15
2023-04-18T20:12:51.400Z,64.05
2023-04-18T20:14:54.846Z,63.75
2023-04-18T20:16:56.733Z,63.99
2023-04-18T20:18:58.354Z,63.65
2023-04-18T20:20:59.893Z,64.03
2023-04-18T20:23:02.484Z,63.99
2023-04-18T20:25:04.071Z,63.73
2023-04-18T20:27:05.580Z,63.71
2023-04-18T20:29:07.061Z,63.59
2023-04-18T20:31:08.580Z,63.77
2023-04-18T20:33:10.050Z,63.65
2023-04-18T20:35:11.621Z,64.29
2023-04-18T20:37:15.568Z,65.25
2023-04-18T20:39:17.202Z,65.72
2023-04-18T20:41:18.885Z,66.00
2023-04-18T20:43:20.492Z,65.73
2023-04-18T20:45:23.958Z,65.77
2023-04-18T20:47:26.227Z,65.83
2023-04-18T20:49:29.546Z,66.01
2023-04-18T20:51:31.923Z,66.91
2023-04-18T20:53:33.404Z,67.96
2023-04-18T20:55:34.870Z,68.25
2023-04-18T20:57:36.313Z,68.71
2023-04-18T20:59:37.753Z,68.42
2023-04-18T21:01:39.325Z,68.46
2023-04-18T21:03:40.928Z,68.24
2023-04-18T21:05:43.086Z,68.44
2023-04-18T21:07:45.879Z,68.66
2023-04-18T21:09:47.502Z,69.38
2023-04-18T21:11:49.002Z,69.14
2023-04-18T21:13:50.678Z,68.49
2023-04-18T21:15:52.229Z,68.23
2023-04-18T21:17:53.878Z,68.90
2023-04-18T21:19:55.852Z,69.55
2023-04-18T21:21:57.388Z,69.52
2023-04-18T21:23:58.906Z,69.14
2023-04-18T21:26:00.691Z,68.61
2023-04-18T21:28:02.446Z,67.71
2023-04-18T21:30:05.013Z,67.25
2023-04-18T21:32:06.795Z,67.33
2023-04-18T21:34:08.656Z,67.52
2023-04-18T21:36:10.080Z,67.12
2023-04-18T21:38:11.596Z,66.58
2023-04-18T21:40:13.199Z,66.43
2023-04-18T21:42:14.747Z,66.26
2023-04-18T21:44:18.806Z,66.23
2023-04-18T21:46:20.718Z,66.12
2023-04-18T21:48:22.253Z,65.92
2023-04-18T21:50:23.766Z,65.71
2023-04-18T21:52:25.258Z,65.62
2023-04-18T21:54:26.687Z,65.32
2023-04-18T21:56:28.134Z,65.35
2023-04-18T21:58:29.633Z,65.09
2023-04-18T22:00:31.126Z,64.78
2023-04-18T22:02:32.649Z,64.46
2023-04-18T22:04:34.633Z,64.68
2023-04-18T22:06:36.273Z,64.64
2023-04-18T22:08:37.802Z,64.67
2023-04-18T22:10:39.778Z,64.65
2023-04-18T22:12:42.500Z,64.80
2023-04-18T22:14:48.239Z,64.38
2023-04-18T22:16:50.118Z,64.42
2023-04-18T22:18:51.825Z,64.47
2023-04-18T22:20:53.948Z,64.90
2023-04-18T22:22:55.618Z,64.95
2023-04-18T22:24:57.171Z,64.90
2023-04-18T22:26:58.772Z,65.08
2023-04-18T22:29:00.230Z,64.68
2023-04-18T22:31:01.750Z,64.52
2023-04-18T22:33:03.349Z,64.18
2023-04-18T22:35:05.159Z,64.66
2023-04-18T22:37:06.614Z,65.07
2023-04-18T22:39:08.129Z,65.27
2023-04-18T22:41:09.568Z,66.44
2023-04-18T22:43:11.278Z,67.16
2023-04-18T22:45:13.722Z,67.42
2023-04-18T22:47:15.301Z,67.11
2023-04-18T22:49:18.051Z,66.55
2023-04-18T22:51:20.321Z,66.07
2023-04-18T22:53:21.827Z,65.82
2023-04-18T22:55:23.366Z,65.70
2023-04-18T22:57:24.869Z,65.63
2023-04-18T22:59:26.650Z,65.95
2023-04-18T23:01:28.170Z,65.96
2023-04-18T23:03:31.302Z,66.16
2023-04-18T23:05:34.316Z,66.52
2023-04-18T23:07:35.760Z,66.81
2023-04-18T23:09:56.063Z,67.57
2023-04-18T23:11:58.222Z,68.03
2023-04-18T23:13:59.692Z,68.23
2023-04-18T23:16:01.233Z,67.99
2023-04-18T23:18:02.879Z,68.25
2023-04-18T23:20:06.962Z,67.71
2023-04-18T23:22:08.440Z,68.50
2023-04-18T23:24:11.135Z,69.79
2023-04-18T23:26:13.219Z,70.10
2023-04-18T23:28:14.881Z,70.20
2023-04-18T23:30:16.424Z,70.22
2023-04-18T23:32:17.895Z,69.48
2023-04-18T23:34:19.431Z,69.84
2023-04-18T23:36:20.994Z,70.46
2023-04-18T23:38:22.522Z,69.64
2023-04-18T23:40:24.028Z,69.84
2023-04-18T23:42:25.482Z,69.50
2023-04-18T23:44:26.947Z,69.47
2023-04-18T23:46:28.410Z,69.10
2023-04-18T23:48:29.988Z,69.09
2023-04-18T23:50:31.438Z,68.67
2023-04-18T23:52:32.945Z,67.94
2023-04-18T23:54:34.523Z,67.59
2023-04-18T23:56:36.106Z,66.95
2023-04-18T23:58:37.564Z,66.78
